Time;durP1;ratioP1;P1;durP2;ratioP2;P2;SDS_P1;SDS_P2;PMS_P1;PMS_P2;Temp;Humidity;BMP_temperature;BMP_pressure;BME280_temperature;BME280_humidity;BME280_pressure;Samples;Min_cycle;Max_cycle;Signal;HPM_P1;HPM_P2
2023/03/22 04:02:02;;;;;;;22.47;20.80;;;5.10;99.90;;;;;;5135385;23;20598;-76
2023/03/22 04:04:28;;;;;;;26.07;24.53;;;5.00;99.90;;;;;;4881758;29;20215;-77
2023/03/22 04:06:56;;;;;;;23.40;22.10;;;5.00;99.90;;;;;;4902500;29;20183;-76
2023/03/22 04:09:23;;;;;;;15.70;14.70;;;4.90;99.90;;;;;;4908691;29;20282;-76
2023/03/22 04:11:49;;;;;;;12.83;11.83;;;4.90;99.90;;;;;;4916331;29;20675;-76
2023/03/22 04:14:15;;;;;;;15.00;13.93;;;4.90;99.90;;;;;;4916292;29;20189;-76
2023/03/22 04:16:40;;;;;;;12.13;11.23;;;5.00;99.90;;;;;;4914338;29;20191;-76
2023/03/22 04:19:06;;;;;;;10.90;10.13;;;5.00;99.90;;;;;;4915524;29;20546;-76
2023/03/22 04:21:32;;;;;;;11.40;10.40;;;4.90;99.90;;;;;;4899672;29;20558;-76
2023/03/22 04:23:58;;;;;;;9.73;9.00;;;5.00;99.90;;;;;;4927768;23;20699;-73
2023/03/22 04:26:24;;;;;;;11.07;10.07;;;4.90;99.90;;;;;;4896633;29;20187;-74
2023/03/22 04:28:50;;;;;;;11.37;10.50;;;4.80;99.90;;;;;;4902892;29;20218;-74
2023/03/22 04:31:17;;;;;;;11.40;10.40;;;4.90;99.90;;;;;;4905721;29;20243;-75
2023/03/22 04:33:45;;;;;;;12.10;11.03;;;4.80;99.90;;;;;;4896860;29;20203;-75
2023/03/22 04:36:16;;;;;;;13.27;12.27;;;4.80;99.90;;;;;;4896713;29;20715;-74
2023/03/22 04:38:42;;;;;;;10.83;10.07;;;4.70;99.90;;;;;;4878741;29;20196;-74
2023/03/22 04:41:09;;;;;;;11.77;10.77;;;4.70;99.90;;;;;;4880488;29;20188;-75
2023/03/22 04:43:38;;;;;;;10.80;9.97;;;4.70;99.90;;;;;;4897408;29;20237;-73
2023/03/22 04:46:11;;;;;;;11.17;10.33;;;4.60;99.90;;;;;;4897434;29;20351;-74
2023/03/22 04:48:38;;;;;;;11.30;10.60;;;4.60;99.90;;;;;;4897817;29;20207;-74
2023/03/22 04:51:09;;;;;;;12.43;11.53;;;4.60;99.90;;;;;;4880758;29;20725;-74
2023/03/22 04:53:38;;;;;;;13.30;12.00;;;4.60;99.90;;;;;;4880708;29;20244;-74
2023/03/22 04:56:06;;;;;;;12.87;11.57;;;4.50;99.90;;;;;;4896087;29;20191;-76
2023/03/22 04:58:35;;;;;;;15.30;14.20;;;4.50;99.90;;;;;;4895755;29;20196;-74
2023/03/22 05:01:01;;;;;;;14.67;13.70;;;4.50;99.90;;;;;;4878541;29;20196;-75
2023/03/22 05:03:27;;;;;;;13.60;12.80;;;4.50;99.90;;;;;;4880420;29;20204;-75
2023/03/22 05:05:56;;;;;;;14.30;13.00;;;4.40;99.90;;;;;;4897439;29;20246;-74
2023/03/22 05:08:24;;;;;;;11.70;10.70;;;4.40;99.90;;;;;;4896806;29;20183;-74
2023/03/22 05:10:51;;;;;;;13.33;12.43;;;4.40;99.90;;;;;;4897166;29;20652;-74
2023/03/22 05:13:21;;;;;;;14.43;13.00;;;4.30;99.90;;;;;;4896932;29;20207;-74
2023/03/22 05:15:48;;;;;;;14.50;13.60;;;4.30;99.90;;;;;;4897245;29;20219;-74
2023/03/22 05:18:15;;;;;;;17.30;16.00;;;4.20;99.90;;;;;;4880497;29;20279;-74
2023/03/22 05:20:42;;;;;;;15.20;12.33;;;4.20;99.90;;;;;;4880185;29;20279;-74
2023/03/22 05:23:11;;;;;;;11.53;10.70;;;4.20;99.90;;;;;;4898852;29;20219;-74
2023/03/22 05:25:37;;;;;;;11.90;11.00;;;4.30;99.90;;;;;;4900536;29;20719;-74
2023/03/22 05:28:03;;;;;;;11.73;10.63;;;4.20;99.90;;;;;;4900053;29;20218;-75
2023/03/22 05:30:30;;;;;;;12.10;11.00;;;4.20;99.90;;;;;;4898432;29;20667;-74
2023/03/22 05:33:02;;;;;;;14.17;13.17;;;4.30;99.90;;;;;;4880313;29;20563;-74
2023/03/22 05:35:33;;;;;;;14.40;13.40;;;4.30;99.90;;;;;;4897560;29;20444;-75
2023/03/22 05:37:59;;;;;;;13.50;12.57;;;4.30;99.90;;;;;;4897020;29;20597;-75
2023/03/22 05:40:26;;;;;;;12.70;11.80;;;4.30;99.90;;;;;;4874243;29;20188;-75
2023/03/22 05:42:53;;;;;;;12.33;11.33;;;4.40;99.90;;;;;;4884898;29;20207;-75
2023/03/22 05:45:20;;;;;;;13.70;12.63;;;4.40;99.90;;;;;;4894954;29;20216;-68
2023/03/22 05:47:46;;;;;;;15.23;14.20;;;4.40;99.90;;;;;;4902144;29;20239;-68
2023/03/22 05:50:17;;;;;;;15.73;14.73;;;4.50;99.90;;;;;;4913710;29;20183;-69
2023/03/22 05:52:43;;;;;;;10.47;9.37;;;4.60;99.90;;;;;;4890782;29;20188;-68
2023/03/22 05:55:11;;;;;;;11.23;10.33;;;4.60;99.90;;;;;;4896018;29;20719;-67
2023/03/22 05:57:37;;;;;;;11.03;10.13;;;4.60;99.90;;;;;;4898817;29;20178;-67
2023/03/22 06:00:08;;;;;;;11.37;10.37;;;4.60;99.90;;;;;;4914600;29;20183;-68
2023/03/22 06:02:34;;;;;;;13.73;12.20;;;4.70;99.90;;;;;;4915333;29;20669;-71
2023/03/22 06:05:00;;;;;;;14.97;13.67;;;4.80;99.90;;;;;;4914930;29;20223;-68
2023/03/22 06:07:25;;;;;;;12.30;11.27;;;4.80;99.90;;;;;;4914976;29;20246;-67
2023/03/22 06:09:51;;;;;;;13.43;12.27;;;4.80;99.90;;;;;;4914359;29;20262;-67
2023/03/22 06:12:18;;;;;;;12.50;11.30;;;4.80;99.90;;;;;;4897122;29;20202;-68
2023/03/22 06:14:44;;;;;;;12.63;11.47;;;4.90;99.90;;;;;;4879356;29;20222;-68
2023/03/22 06:17:10;;;;;;;12.83;11.83;;;4.90;99.90;;;;;;4896527;29;20648;-68
2023/03/22 06:19:36;;;;;;;12.87;11.77;;;5.00;99.90;;;;;;4878921;29;20532;-68
2023/03/22 06:22:02;;;;;;;13.00;11.90;;;5.10;99.90;;;;;;4895712;29;20190;-68
2023/03/22 06:24:28;;;;;;;12.00;11.10;;;5.20;99.90;;;;;;4895598;29;20219;-68
2023/03/22 06:26:54;;;;;;;12.60;11.60;;;5.30;99.90;;;;;;4895118;29;20668;-69
2023/03/22 06:29:20;;;;;;;13.63;12.50;;;5.50;99.90;;;;;;4878897;29;20180;-69
2023/03/22 06:31:46;;;;;;;16.80;15.53;;;5.60;99.90;;;;;;4895645;29;20187;-66
2023/03/22 06:34:12;;;;;;;23.27;21.63;;;5.70;99.90;;;;;;4898856;29;20285;-64
2023/03/22 06:36:38;;;;;;;14.63;12.87;;;6.00;99.90;;;;;;4914406;29;20274;-63
2023/03/22 06:39:04;;;;;;;11.17;10.27;;;6.10;99.90;;;;;;4880350;29;20188;-65
2023/03/22 06:41:30;;;;;;;11.17;10.30;;;6.30;99.90;;;;;;4894796;29;20184;-64
2023/03/22 06:43:55;;;;;;;17.83;16.10;;;6.50;99.90;;;;;;4894369;29;20332;-65
2023/03/22 06:46:21;;;;;;;12.23;10.03;;;6.70;99.90;;;;;;4895787;29;20258;-65
2023/03/22 06:48:47;;;;;;;9.47;8.67;;;6.90;99.90;;;;;;4895544;29;20789;-64
2023/03/22 06:51:13;;;;;;;10.83;9.83;;;7.40;99.90;;;;;;4895731;29;20188;-64
2023/03/22 06:53:38;;;;;;;11.97;10.93;;;8.10;99.90;;;;;;4895476;29;20210;-65
2023/03/22 06:56:05;;;;;;;16.37;14.73;;;9.00;99.90;;;;;;4895903;29;20690;-64
2023/03/22 06:58:31;;;;;;;21.87;20.47;;;9.60;99.90;;;;;;4879006;29;20650;-64
2023/03/22 07:00:56;;;;;;;23.00;21.30;;;9.90;99.90;;;;;;4895735;29;20216;-65
2023/03/22 07:03:23;;;;;;;14.90;14.03;;;10.50;99.90;;;;;;4895962;29;20290;-65
2023/03/22 07:05:49;;;;;;;18.40;16.90;;;11.00;99.90;;;;;;4879136;29;20306;-71
2023/03/22 07:08:15;;;;;;;18.77;17.13;;;11.50;99.90;;;;;;4895617;29;20191;-68
2023/03/22 07:10:42;;;;;;;13.50;12.40;;;12.00;99.90;;;;;;4895679;29;20270;-68
2023/03/22 07:13:09;;;;;;;11.10;10.30;;;12.40;99.90;;;;;;4895903;29;20755;-67
2023/03/22 07:15:35;;;;;;;11.77;10.60;;;12.80;99.90;;;;;;4896107;29;20547;-68
2023/03/22 07:18:01;;;;;;;13.03;12.03;;;13.00;99.90;;;;;;4896016;29;20270;-69
2023/03/22 07:20:27;;;;;;;17.53;16.27;;;13.00;99.90;;;;;;4895399;29;20390;-69
2023/03/22 07:22:53;;;;;;;34.30;32.17;;;13.20;99.90;;;;;;4879190;29;20820;-69
2023/03/22 07:25:19;;;;;;;42.70;39.90;;;13.60;99.90;;;;;;4898978;29;20199;-69
2023/03/22 07:27:45;;;;;;;34.50;32.17;;;13.80;99.90;;;;;;4882601;29;20180;-69
2023/03/22 07:30:11;;;;;;;26.87;24.93;;;13.90;99.90;;;;;;4882229;29;20184;-68
2023/03/22 07:32:40;;;;;;;11.93;10.90;;;13.80;99.90;;;;;;4899296;29;20569;-69
2023/03/22 07:35:06;;;;;;;8.73;8.00;;;14.20;99.90;;;;;;4899100;29;20353;-68
2023/03/22 07:37:32;;;;;;;9.87;9.17;;;14.50;99.90;;;;;;4904911;29;20279;-68
2023/03/22 07:39:58;;;;;;;13.57;12.70;;;14.80;99.90;;;;;;4900602;29;20191;-69
2023/03/22 07:42:23;;;;;;;15.57;14.47;;;14.60;99.90;;;;;;4917942;29;20554;-69
2023/03/22 07:44:49;;;;;;;11.07;10.07;;;14.10;99.90;;;;;;4917791;29;20313;-69
2023/03/22 07:47:15;;;;;;;12.53;11.53;;;14.40;99.90;;;;;;4917939;29;20330;-70
2023/03/22 07:49:41;;;;;;;18.87;17.67;;;14.70;99.90;;;;;;4917665;29;20183;-68
2023/03/22 07:52:07;;;;;;;21.63;20.23;;;14.60;99.90;;;;;;4891554;29;20187;-68
2023/03/22 07:54:33;;;;;;;16.50;15.10;;;14.30;99.90;;;;;;4898697;29;20207;-68
2023/03/22 07:56:59;;;;;;;20.00;18.67;;;14.40;99.90;;;;;;4898979;29;20198;-68
2023/03/22 07:59:25;;;;;;;18.40;17.20;;;14.40;99.90;;;;;;4898432;29;20203;-68
2023/03/22 08:01:51;;;;;;;16.07;14.87;;;14.30;99.90;;;;;;4882282;29;20555;-69
2023/03/22 08:04:18;;;;;;;19.50;18.27;;;14.60;99.90;;;;;;4898805;29;20235;-69
2023/03/22 08:06:45;;;;;;;18.87;17.57;;;15.00;99.90;;;;;;4898664;29;20271;-69
2023/03/22 08:09:11;;;;;;;18.43;17.27;;;15.00;99.90;;;;;;4898895;29;20188;-67
2023/03/22 08:11:37;;;;;;;12.93;11.97;;;14.90;99.90;;;;;;4882484;29;20191;-67
2023/03/22 08:14:02;;;;;;;9.27;8.40;;;15.10;99.90;;;;;;4898560;29;20212;-67
2023/03/22 08:16:28;;;;;;;8.30;7.53;;;15.20;99.90;;;;;;4898459;29;20267;-68
2023/03/22 08:18:54;;;;;;;8.13;7.43;;;15.50;99.90;;;;;;4898112;29;20238;-68
2023/03/22 08:21:20;;;;;;;7.40;6.90;;;15.70;99.90;;;;;;4881112;29;20190;-67
2023/03/22 08:23:46;;;;;;;10.33;8.10;;;15.80;99.90;;;;;;4898062;29;20267;-68
2023/03/22 08:26:11;;;;;;;8.87;8.17;;;16.30;99.90;;;;;;4881390;29;20211;-67
2023/03/22 08:28:37;;;;;;;9.47;8.57;;;16.50;99.90;;;;;;4897904;29;20320;-68
2023/03/22 08:31:10;;;;;;;11.60;10.80;;;16.60;99.90;;;;;;4881389;29;20182;-67
2023/03/22 08:33:37;;;;;;;14.07;13.17;;;16.90;99.90;;;;;;4897342;29;20203;-66
2023/03/22 08:36:11;;;;;;;9.33;8.50;;;17.60;99.90;;;;;;4897969;29;20672;-68
2023/03/22 08:38:37;;;;;;;8.57;8.00;;;17.90;99.90;;;;;;4897867;29;20191;-68
2023/03/22 08:41:02;;;;;;;7.90;7.20;;;18.40;99.90;;;;;;4897969;29;20531;-68
2023/03/22 08:43:28;;;;;;;8.90;8.40;;;18.80;99.90;;;;;;4881134;29;20211;-68
2023/03/22 08:45:54;;;;;;;7.77;5.70;;;19.10;98.50;;;;;;4897898;29;20219;-68
2023/03/22 08:48:20;;;;;;;5.70;5.30;;;19.20;97.30;;;;;;4897306;29;20227;-68
2023/03/22 08:50:46;;;;;;;5.47;5.17;;;19.30;96.40;;;;;;4897409;29;20191;-67
2023/03/22 08:53:12;;;;;;;5.93;5.63;;;19.40;96.30;;;;;;4881133;29;20203;-68
2023/03/22 08:55:43;;;;;;;8.13;7.33;;;19.60;95.70;;;;;;4881014;29;20244;-67
2023/03/22 08:58:13;;;;;;;10.67;9.97;;;19.90;94.80;;;;;;4897761;29;20194;-67
2023/03/22 09:00:40;;;;;;;10.85;10.15;;;19.90;93.60;;;;;;4897405;29;20556;-68
2023/03/22 09:03:05;;;;;;;11.48;10.88;;;20.00;93.10;;;;;;4897441;29;20211;-68
2023/03/22 09:05:31;;;;;;;11.00;10.37;;;20.00;92.70;;;;;;4897450;29;20241;-68
2023/03/22 09:07:57;;;;;;;9.33;8.90;;;20.00;92.90;;;;;;4897506;29;20192;-68
2023/03/22 09:10:23;;;;;;;9.20;8.80;;;19.90;92.30;;;;;;4897204;29;20190;-69
2023/03/22 09:12:49;;;;;;;7.23;6.70;;;20.20;92.10;;;;;;4897363;29;20591;-68
2023/03/22 09:15:15;;;;;;;6.97;6.57;;;20.30;91.00;;;;;;4880350;29;20587;-68
2023/03/22 09:17:40;;;;;;;5.60;5.30;;;20.20;90.80;;;;;;4880651;29;20222;-69
2023/03/22 09:20:07;;;;;;;6.50;6.17;;;19.90;91.10;;;;;;4897033;29;20194;-69
2023/03/22 09:22:32;;;;;;;7.57;7.27;;;19.60;91.50;;;;;;4897354;29;20278;-69
2023/03/22 09:24:58;;;;;;;7.73;7.23;;;19.00;92.60;;;;;;4896986;29;20881;-68
2023/03/22 09:27:24;;;;;;;7.53;7.07;;;19.10;92.10;;;;;;4897254;29;20184;-68
2023/03/22 09:29:51;;;;;;;8.00;7.63;;;19.30;91.90;;;;;;4896458;29;20192;-68
2023/03/22 09:32:17;;;;;;;8.20;7.70;;;19.40;92.30;;;;;;4908527;29;20219;-67
2023/03/22 09:34:43;;;;;;;7.63;7.20;;;19.30;92.20;;;;;;4915714;29;20210;-68
2023/03/22 09:37:11;;;;;;;7.47;6.97;;;19.30;91.80;;;;;;4898966;29;20278;-69
2023/03/22 09:39:38;;;;;;;7.37;6.97;;;19.50;91.20;;;;;;4915465;29;20191;-68
2023/03/22 09:42:32;;;;;;;7.57;7.20;;;19.80;91.10;;;;;;4912496;29;20184;-69
2023/03/22 09:45:01;;;;;;;6.93;6.63;;;20.50;90.90;;;;;;4896185;29;20219;-69
2023/03/22 09:47:37;;;;;;;7.15;6.60;;;20.30;91.10;;;;;;4896342;29;20208;-68
2023/03/22 09:50:17;;;;;;;6.22;5.95;;;20.30;90.50;;;;;;4896393;29;20712;-68
2023/03/22 09:52:43;;;;;;;6.70;6.27;;;20.40;89.50;;;;;;4880039;29;20211;-69
2023/03/22 09:55:19;;;;;;;6.40;5.55;;;20.10;89.20;;;;;;4896694;29;20249;-68
2023/03/22 09:58:01;;;;;;;6.50;6.20;;;20.10;88.30;;;;;;4896699;29;20184;-68
2023/03/22 10:00:42;;;;;;;6.63;6.22;;;20.20;89.90;;;;;;4896335;29;20262;-68
2023/03/22 10:03:16;;;;;;;5.60;5.40;;;19.40;89.90;;;;;;4896579;29;20211;-68
2023/03/22 10:05:59;;;;;;;5.50;5.10;;;19.30;90.70;;;;;;4879907;29;20219;-68
2023/03/22 10:08:49;;;;;;;6.07;5.80;;;19.80;90.10;;;;;;4879712;29;20188;-68
2023/03/22 10:11:41;;;;;;;8.07;7.47;;;20.00;90.10;;;;;;4895936;29;20552;-68
2023/03/22 10:14:27;;;;;;;6.00;5.60;;;20.50;89.20;;;;;;4890701;29;20211;-68
2023/03/22 10:16:55;;;;;;;6.18;5.88;;;20.80;88.10;;;;;;4896266;29;20180;-68
2023/03/22 10:19:29;;;;;;;4.95;4.65;;;21.20;87.50;;;;;;4895765;29;20184;-67
2023/03/22 10:21:58;;;;;;;5.80;5.43;;;21.50;84.30;;;;;;4896102;29;20647;-67
2023/03/22 10:24:30;;;;;;;4.88;4.68;;;21.10;83.90;;;;;;4926146;23;20283;-71
2023/03/22 10:26:56;;;;;;;8.85;8.45;;;21.20;83.50;;;;;;4897527;29;20226;-70
2023/03/22 10:29:29;;;;;;;12.98;12.10;;;21.20;82.80;;;;;;4914990;29;20183;-69
2023/03/22 10:32:01;;;;;;;10.35;9.90;;;21.30;82.00;;;;;;4898400;29;20191;-70
2023/03/22 10:34:30;;;;;;;25.27;24.08;;;21.00;83.00;;;;;;4908361;29;20214;-71
2023/03/22 10:37:00;;;;;;;15.57;14.88;;;21.20;81.50;;;;;;4916341;29;20274;-70
2023/03/22 10:39:32;;;;;;;43.80;41.67;;;21.90;82.00;;;;;;4896818;29;20183;-71
2023/03/22 10:42:06;;;;;;;47.72;45.25;;;22.00;79.70;;;;;;4883877;29;20673;-69
2023/03/22 10:44:51;;;;;;;38.30;36.50;;;21.20;80.70;;;;;;4877373;29;20275;-70
2023/03/22 10:47:22;;;;;;;22.88;21.58;;;20.60;82.20;;;;;;4861089;29;20184;-71
2023/03/22 10:49:53;;;;;;;14.75;14.10;;;20.40;83.00;;;;;;4877050;29;20252;-70
2023/03/22 10:52:36;;;;;;;15.38;14.52;;;20.40;82.70;;;;;;4877549;29;20672;-70
2023/03/22 10:55:03;;;;;;;29.65;28.30;;;20.70;82.00;;;;;;4883301;29;20215;-70
2023/03/22 10:57:29;;;;;;;29.02;27.70;;;21.00;80.70;;;;;;4897613;29;20215;-71
2023/03/22 10:59:56;;;;;;;46.70;44.53;;;21.50;78.90;;;;;;4899699;29;20218;-69
2023/03/22 11:02:31;;;;;;;44.17;41.97;;;21.90;78.80;;;;;;4882815;29;20308;-70
2023/03/22 11:05:03;;;;;;;51.08;48.55;;;21.90;78.90;;;;;;4882627;29;20221;-70
2023/03/22 11:07:35;;;;;;;43.90;41.78;;;22.30;78.30;;;;;;4899761;29;20196;-70
2023/03/22 11:10:07;;;;;;;25.75;24.55;;;23.00;76.10;;;;;;4900332;29;20192;-70
2023/03/22 11:12:34;;;;;;;14.35;13.70;;;23.20;73.70;;;;;;4899829;29;20206;-71
2023/03/22 11:14:59;;;;;;;11.32;10.80;;;23.90;71.60;;;;;;4899735;29;20844;-70
2023/03/22 11:17:25;;;;;;;4.85;4.65;;;24.70;71.60;;;;;;4882619;29;20290;-70
2023/03/22 11:20:00;;;;;;;5.97;5.57;;;24.10;70.10;;;;;;4899028;29;20270;-70
2023/03/22 11:22:41;;;;;;;3.63;3.42;;;23.90;69.60;;;;;;4896175;29;20208;-70
2023/03/22 11:25:43;;;;;;;3.40;3.30;;;23.90;69.90;;;;;;4886035;29;20645;-70
2023/03/22 11:28:16;;;;;;;3.85;3.55;;;24.40;66.60;;;;;;4908618;29;20240;-71
2023/03/22 11:31:07;;;;;;;3.83;3.67;;;24.40;65.00;;;;;;4917874;29;20262;-70
2023/03/22 11:33:52;;;;;;;3.50;3.30;;;23.70;65.10;;;;;;4918049;29;20203;-71
2023/03/22 11:36:18;;;;;;;3.28;3.08;;;23.40;68.30;;;;;;4914314;29;20188;-70
2023/03/22 11:38:44;;;;;;;3.53;3.33;;;23.30;67.50;;;;;;4898455;29;20187;-71
2023/03/22 11:41:30;;;;;;;6.10;5.00;;;22.40;70.40;;;;;;4899134;29;20787;-71
2023/03/22 11:44:00;;;;;;;8.80;8.23;;;22.10;70.20;;;;;;4899100;29;20263;-71
2023/03/22 11:46:27;;;;;;;6.30;5.72;;;22.70;71.10;;;;;;4898846;29;20226;-71
2023/03/22 11:48:59;;;;;;;7.43;6.53;;;22.90;68.70;;;;;;4898584;29;20183;-71
2023/03/22 11:51:32;;;;;;;4.90;4.60;;;24.00;66.20;;;;;;4886850;29;20185;-71
2023/03/22 11:54:08;;;;;;;5.63;4.90;;;24.80;65.40;;;;;;4880172;29;20394;-71
2023/03/22 11:56:38;;;;;;;4.65;4.35;;;25.10;63.40;;;;;;4880251;29;20321;-71
2023/03/22 11:59:11;;;;;;;3.97;3.67;;;24.50;62.80;;;;;;4879721;29;20247;-70
2023/03/22 12:01:56;;;;;;;4.95;3.90;;;24.00;63.80;;;;;;4879811;29;20188;-71
2023/03/22 12:04:27;;;;;;;3.90;3.70;;;23.60;63.70;;;;;;4884348;29;20207;-70
2023/03/22 12:06:59;;;;;;;3.42;3.22;;;22.80;64.10;;;;;;4898841;29;20199;-70
2023/03/22 12:09:38;;;;;;;3.92;3.72;;;23.00;65.90;;;;;;4897590;29;20199;-72
2023/03/22 12:12:16;;;;;;;4.45;4.15;;;23.90;62.50;;;;;;4882164;29;20557;-71
2023/03/22 12:15:06;;;;;;;3.83;3.63;;;23.90;64.30;;;;;;4898546;29;20751;-71
2023/03/22 12:17:51;;;;;;;4.28;3.97;;;23.20;64.30;;;;;;4882102;29;20188;-70
2023/03/22 12:20:28;;;;;;;3.28;3.17;;;23.20;63.60;;;;;;4879668;29;20196;-71
2023/03/22 12:22:55;;;;;;;3.13;2.95;;;24.00;63.30;;;;;;4880031;29;20180;-70
2023/03/22 12:25:27;;;;;;;3.40;3.20;;;24.40;62.50;;;;;;4891357;29;20235;-71
2023/03/22 12:28:00;;;;;;;2.67;2.58;;;24.70;60.00;;;;;;4886205;29;20189;-72
2023/03/22 12:30:46;;;;;;;3.08;2.97;;;24.80;59.00;;;;;;4882684;29;20248;-69
2023/03/22 12:33:28;;;;;;;3.03;2.80;;;25.40;57.70;;;;;;4891451;29;20184;-70
2023/03/22 12:36:02;;;;;;;2.97;2.85;;;25.90;58.80;;;;;;4898182;29;20198;-70
2023/03/22 12:38:49;;;;;;;2.90;2.88;;;27.00;56.90;;;;;;4898027;29;20191;-70
2023/03/22 12:41:23;;;;;;;3.40;3.30;;;26.80;55.20;;;;;;4898311;29;20664;-70
2023/03/22 12:44:00;;;;;;;5.70;5.32;;;26.70;54.10;;;;;;4881474;29;20219;-69
2023/03/22 12:46:37;;;;;;;4.22;4.03;;;26.10;53.70;;;;;;4890904;29;20294;-70
2023/03/22 12:49:44;;;;;;;3.72;3.63;;;25.90;55.90;;;;;;4879106;29;20188;-70
2023/03/22 12:52:23;;;;;;;3.95;3.75;;;25.60;55.70;;;;;;4870588;29;20188;-70
2023/03/22 12:54:51;;;;;;;3.67;3.58;;;25.90;56.30;;;;;;4878879;29;20298;-69
2023/03/22 12:57:17;;;;;;;3.63;3.53;;;25.80;56.20;;;;;;4862559;29;20192;-70
2023/03/22 12:59:47;;;;;;;3.10;2.90;;;26.10;56.50;;;;;;4873648;29;20274;-70
2023/03/22 13:02:28;;;;;;;3.25;3.15;;;25.00;57.10;;;;;;4897219;29;20300;-69
2023/03/22 13:04:59;;;;;;;3.53;3.25;;;23.90;57.70;;;;;;4897533;29;20223;-70
2023/03/22 13:07:58;;;;;;;5.65;5.45;;;23.70;57.00;;;;;;4897725;29;20207;-70
2023/03/22 13:10:29;;;;;;;3.72;3.42;;;24.30;54.30;;;;;;4875800;29;20188;-70
2023/03/22 13:13:11;;;;;;;3.00;2.90;;;24.20;55.80;;;;;;4890878;29;20264;-70
2023/03/22 13:15:55;;;;;;;3.00;2.90;;;23.80;59.00;;;;;;4878839;29;20192;-71
2023/03/22 13:18:35;;;;;;;3.35;3.25;;;23.70;57.70;;;;;;4878504;29;20684;-70
2023/03/22 13:21:18;;;;;;;3.17;2.85;;;24.00;56.60;;;;;;4913587;29;20264;-70
2023/03/22 13:24:05;;;;;;;3.30;3.20;;;24.20;55.50;;;;;;4916096;29;20218;-70
2023/03/22 13:26:42;;;;;;;3.72;3.40;;;24.30;57.70;;;;;;4894322;29;20239;-70
2023/03/22 13:29:17;;;;;;;3.78;3.58;;;23.60;64.10;;;;;;4899315;29;20212;-71
2023/03/22 13:31:50;;;;;;;2.97;2.88;;;24.10;58.30;;;;;;4901320;29;20278;-71
2023/03/22 13:34:30;;;;;;;4.50;3.42;;;24.30;56.80;;;;;;4881597;29;20661;-70
2023/03/22 13:36:56;;;;;;;3.75;3.55;;;24.40;59.50;;;;;;4880442;29;20187;-71
2023/03/22 13:39:24;;;;;;;3.53;3.40;;;24.50;62.50;;;;;;4880023;29;20188;-71
2023/03/22 13:42:16;;;;;;;3.03;2.78;;;24.90;56.70;;;;;;4865619;29;20220;-68
2023/03/22 13:44:44;;;;;;;3.83;3.70;;;25.10;57.60;;;;;;4878152;29;20220;-68
2023/03/22 13:47:45;;;;;;;3.38;3.13;;;24.50;56.50;;;;;;4878132;29;20184;-67
2023/03/22 13:50:31;;;;;;;5.72;3.63;;;23.60;57.60;;;;;;4877837;29;20184;-67
2023/03/22 13:53:06;;;;;;;3.53;3.33;;;23.30;56.80;;;;;;4878141;29;20347;-67
2023/03/22 13:55:40;;;;;;;3.50;3.33;;;22.90;59.90;;;;;;4890726;29;20187;-67
2023/03/22 13:58:31;;;;;;;4.50;3.20;;;22.30;61.70;;;;;;4880012;29;20184;-67
2023/03/22 14:00:58;;;;;;;3.60;3.40;;;21.90;60.50;;;;;;4896454;29;20196;-70
2023/03/22 14:03:34;;;;;;;3.42;3.22;;;21.80;60.30;;;;;;4896505;29;20176;-70
2023/03/22 14:06:39;;;;;;;3.50;3.40;;;21.80;61.20;;;;;;4896606;29;20215;-69
2023/03/22 14:09:22;;;;;;;3.72;3.60;;;21.90;62.90;;;;;;4884587;29;20196;-70
2023/03/22 14:12:27;;;;;;;2.80;2.75;;;22.20;61.10;;;;;;4878807;29;20591;-70
2023/03/22 14:15:01;;;;;;;4.97;4.60;;;22.20;61.70;;;;;;4862799;29;20212;-70
2023/03/22 14:17:51;;;;;;;4.55;4.28;;;22.50;59.50;;;;;;4861257;29;20230;-70
2023/03/22 14:20:20;;;;;;;6.57;5.55;;;23.30;59.40;;;;;;4860820;29;20204;-70
2023/03/22 14:23:20;;;;;;;3.70;3.50;;;24.10;58.50;;;;;;4885847;29;20176;-71
2023/03/22 14:25:47;;;;;;;4.35;4.03;;;24.70;56.20;;;;;;4895805;29;20247;-70
2023/03/22 14:28:21;;;;;;;4.28;4.07;;;24.60;56.00;;;;;;4879461;29;20243;-70
2023/03/22 14:30:47;;;;;;;3.80;3.65;;;24.30;55.50;;;;;;4879419;29;20667;-70
2023/03/22 14:33:20;;;;;;;3.90;3.72;;;24.70;55.00;;;;;;4895679;29;20184;-70
2023/03/22 14:35:58;;;;;;;6.20;5.85;;;25.60;53.50;;;;;;4894658;29;20202;-70
2023/03/22 14:38:34;;;;;;;5.10;4.85;;;26.60;51.50;;;;;;4877057;29;20188;-70
2023/03/22 14:41:18;;;;;;;4.78;4.40;;;26.80;51.60;;;;;;4877287;29;20188;-71
2023/03/22 14:43:46;;;;;;;6.78;6.47;;;25.20;51.90;;;;;;4877253;29;20219;-70
2023/03/22 14:46:21;;;;;;;5.72;5.43;;;24.20;54.40;;;;;;4877231;29;20224;-70
2023/03/22 14:48:58;;;;;;;4.82;4.40;;;24.10;55.00;;;;;;4876846;29;20203;-70
2023/03/22 14:51:30;;;;;;;4.05;3.85;;;23.80;56.10;;;;;;4891628;29;20190;-70
2023/03/22 14:53:57;;;;;;;4.13;3.92;;;24.60;54.20;;;;;;4879309;29;20207;-70
2023/03/22 14:56:32;;;;;;;5.72;5.38;;;25.50;52.30;;;;;;4895727;29;20188;-70
2023/03/22 14:59:01;;;;;;;5.55;5.28;;;25.80;51.90;;;;;;4895635;29;20277;-70
2023/03/22 15:01:40;;;;;;;6.28;5.97;;;25.70;51.50;;;;;;4895534;29;20190;-70
2023/03/22 15:04:09;;;;;;;5.90;5.70;;;24.60;52.10;;;;;;4873861;29;20239;-71
2023/03/22 15:07:03;;;;;;;4.90;4.72;;;23.90;53.10;;;;;;4877050;29;20697;-69
2023/03/22 15:09:30;;;;;;;4.13;4.03;;;24.50;53.10;;;;;;4874887;29;20196;-70
2023/03/22 15:12:02;;;;;;;5.03;4.72;;;25.20;52.80;;;;;;4860660;29;20266;-71
2023/03/22 15:14:35;;;;;;;5.65;5.25;;;24.90;53.80;;;;;;4877020;29;20226;-70
2023/03/22 15:17:01;;;;;;;5.15;4.95;;;23.70;53.70;;;;;;4879280;29;20184;-71
2023/03/22 15:19:36;;;;;;;5.30;4.90;;;23.10;55.10;;;;;;4904358;29;20182;-68
2023/03/22 15:22:14;;;;;;;4.78;4.47;;;22.90;53.90;;;;;;4914987;29;20273;-69
2023/03/22 15:24:50;;;;;;;4.30;4.00;;;22.40;55.20;;;;;;4914456;29;20225;-69
2023/03/22 15:27:17;;;;;;;6.20;5.80;;;22.60;55.80;;;;;;4914518;29;20187;-69
2023/03/22 15:29:44;;;;;;;7.18;6.50;;;23.20;53.10;;;;;;4914557;29;20183;-69
2023/03/22 15:32:24;;;;;;;6.70;6.20;;;23.30;51.80;;;;;;4900402;29;20187;-69
2023/03/22 15:34:51;;;;;;;4.78;4.47;;;23.20;52.20;;;;;;4895137;29;20211;-70
2023/03/22 15:37:28;;;;;;;6.07;5.68;;;23.40;52.30;;;;;;4895183;29;20279;-69
2023/03/22 15:39:54;;;;;;;4.80;4.50;;;23.80;52.40;;;;;;4893658;29;20190;-70
2023/03/22 15:42:30;;;;;;;5.47;5.07;;;24.30;52.70;;;;;;4894844;29;20288;-69
2023/03/22 15:45:05;;;;;;;5.38;5.05;;;24.00;52.20;;;;;;4879811;29;20238;-69
2023/03/22 15:47:45;;;;;;;4.50;4.15;;;23.80;52.30;;;;;;4880377;29;20261;-70
2023/03/22 15:50:11;;;;;;;4.50;4.30;;;23.70;54.50;;;;;;4898762;29;20194;-69
2023/03/22 15:52:56;;;;;;;4.45;4.25;;;23.80;53.00;;;;;;4882170;29;20184;-69
2023/03/22 15:55:36;;;;;;;3.85;3.50;;;23.40;54.30;;;;;;4881951;29;20217;-70
2023/03/22 15:58:05;;;;;;;3.33;3.22;;;23.40;53.90;;;;;;4899361;29;20218;-69
2023/03/22 16:00:40;;;;;;;3.45;3.25;;;23.60;53.20;;;;;;4887159;29;20192;-70
2023/03/22 16:03:05;;;;;;;4.13;3.70;;;23.20;53.90;;;;;;4902146;29;20251;-70
2023/03/22 16:05:36;;;;;;;3.88;3.67;;;22.60;54.90;;;;;;4866210;29;20247;-69
2023/03/22 16:08:04;;;;;;;4.00;3.80;;;22.50;56.60;;;;;;4880199;29;20195;-69
2023/03/22 16:10:32;;;;;;;4.20;4.00;;;22.30;55.90;;;;;;4879595;29;20184;-69
2023/03/22 16:12:59;;;;;;;4.25;4.05;;;22.00;57.00;;;;;;4879832;29;20189;-69
2023/03/22 16:15:29;;;;;;;3.97;3.78;;;22.10;57.50;;;;;;4898327;29;20239;-71
2023/03/22 16:17:55;;;;;;;4.25;4.00;;;22.40;56.70;;;;;;4881875;29;20211;-70
2023/03/22 16:20:21;;;;;;;5.47;4.20;;;22.40;58.10;;;;;;4881482;29;20278;-69
2023/03/22 16:22:49;;;;;;;4.85;4.55;;;22.00;57.50;;;;;;4898441;29;20231;-69
2023/03/22 16:25:24;;;;;;;4.28;3.97;;;21.60;57.80;;;;;;4901521;23;20330;-69
2023/03/22 16:27:51;;;;;;;4.13;3.92;;;21.10;60.10;;;;;;4898012;29;20191;-69
2023/03/22 16:30:17;;;;;;;4.35;4.13;;;20.50;61.30;;;;;;4897982;29;20326;-68
2023/03/22 16:32:45;;;;;;;5.25;5.05;;;20.20;62.90;;;;;;4881519;29;20192;-68
2023/03/22 16:35:14;;;;;;;7.55;7.00;;;20.00;64.10;;;;;;4881270;29;20211;-67
2023/03/22 16:37:42;;;;;;;7.47;7.03;;;19.80;63.10;;;;;;4898236;29;20539;-68
2023/03/22 16:40:17;;;;;;;7.78;7.47;;;19.60;63.10;;;;;;4880736;29;20187;-69
2023/03/22 16:42:43;;;;;;;10.18;9.70;;;19.40;64.00;;;;;;4897761;29;20188;-68
2023/03/22 16:45:19;;;;;;;12.40;11.80;;;19.30;64.90;;;;;;4897956;29;20603;-68
2023/03/22 16:47:46;;;;;;;20.35;19.05;;;19.20;65.50;;;;;;4881327;29;20656;-69
2023/03/22 16:50:11;;;;;;;24.00;22.67;;;19.00;66.40;;;;;;4897407;29;20184;-69
2023/03/22 16:52:37;;;;;;;24.40;23.10;;;18.90;67.00;;;;;;4881113;29;20187;-68
2023/03/22 16:55:03;;;;;;;22.77;21.67;;;18.80;67.60;;;;;;4897167;29;20211;-68
2023/03/22 16:57:29;;;;;;;18.23;17.33;;;18.70;67.40;;;;;;4897357;29;20188;-69
2023/03/22 16:59:56;;;;;;;16.00;15.10;;;18.60;67.80;;;;;;4880662;29;20694;-69
2023/03/22 17:02:36;;;;;;;12.07;11.47;;;18.50;68.40;;;;;;4898801;29;20188;-69